Latest Weather Observations for Liawenee

IDT60801

Issued at 7:33 pm EDT Tuesday 3 March 2015 (issued every 30 minutes, with the page automatically refreshed every 10 minutes)

About weather observations | Map of weather stations | Latest weather observations for TAS | Other Formats
Station Details ID: 096033 Name: LIAWENEE Lat: -41.90 Lon: 146.67 Height: 1057.0 m
Data from the previous 72 hours. | See also: Recent months at Liawenee
Date/Time
EDT
Temp
°C
App
Temp
°C
Dew
Point
Rel
Hum
%
Delta-T
°C
Wind Press
QNH
hPa
Press
MSL
hPa
Rain
since 9 am
mm
Dir
 
Spd
km/h
Gust
km/h
Spd
kts
Gust
kts
03/07:30pm 9.5 3.9 0.9 55 3.8 W 20 26 11 14 1012.0 1010.5 0.0
03/07:00pm 11.2 5.2 1.2 50 4.5 W 22 26 12 14 1012.2 1010.7 0.0
03/06:30pm 12.1 6.1 1.1 47 4.9 W 22 30 12 16 1012.2 1010.7 0.0
03/06:00pm 13.0 7.3 0.7 43 5.5 W 20 30 11 16 1012.4 1010.9 0.0
03/05:30pm 14.1 8.5 1.1 41 5.9 W 20 30 11 16 1012.5 1011.1 0.0
03/05:00pm 14.3 7.3 -0.6 36 6.6 W 26 37 14 20 1012.7 1011.3 0.0
03/04:30pm 14.8 8.6 -0.5 35 6.8 W 22 32 12 17 1012.6 1011.2 0.0
03/04:00pm 14.4 8.5 -0.5 36 6.6 WNW 20 30 11 16 1013.1 1011.6 0.0
03/03:30pm 14.9 9.0 -0.8 34 6.9 W 20 32 11 17 1013.2 1011.7 0.0
03/03:00pm 14.4 8.8 1.0 40 6.1 W 20 33 11 18 1013.4 1012.0 0.0
03/02:30pm 15.0 9.3 0.8 38 6.5 W 20 41 11 22 1013.7 1012.3 0.0
03/02:00pm 14.0 9.2 2.6 46 5.4 W 17 28 9 15 1013.9 1012.4 0.0
03/01:30pm 13.7 8.2 2.0 45 5.4 W 20 30 11 16 1014.2 1012.8 0.0
03/01:00pm 13.5 9.3 3.6 51 4.7 WSW 15 22 8 12 1014.2 1012.8 0.0
03/12:30pm 12.2 7.4 2.4 51 4.5 WNW 17 26 9 14 1014.5 1013.1 0.0
03/12:00pm 13.3 8.3 3.4 51 4.7 W 19 33 10 18 1015.0 1013.5 0.0
03/11:30am 11.4 6.5 2.2 53 4.2 W 17 24 9 13 1015.1 1013.7 0.0
03/11:00am 11.1 6.4 2.9 57 3.8 W 17 24 9 13 1015.1 1013.7 0.0
03/10:30am 10.1 6.2 3.6 64 3.0 W 13 20 7 11 1015.1 1013.7 0.0
03/10:00am 9.7 4.5 3.7 66 2.8 WSW 20 32 11 17 1014.7 1013.3 0.0
03/09:30am 9.6 4.2 4.6 71 2.4 WSW 22 30 12 16 1014.6 1013.2 0.0
03/09:00am 8.5 3.4 4.3 75 2.0 WSW 20 32 11 17 1014.5 1013.1 -
03/08:30am 7.8 3.1 5.3 84 1.2 WSW 19 24 10 13 1014.2 1012.8 -
03/08:00am 6.5 2.3 5.6 94 0.4 WSW 17 24 9 13 1014.0 1012.5 -
03/07:30am 6.5 1.8 5.0 90 0.7 WSW 19 24 10 13 1013.6 1012.2 -
03/07:00am 5.7 0.8 4.2 90 0.7 WSW 19 24 10 13 1013.3 1011.8 -
03/06:30am 6.8 1.5 5.1 89 0.8 WSW 22 30 12 16 1013.0 1011.5 -
03/06:00am 6.5 2.3 5.5 93 0.5 WSW 17 22 9 12 1012.5 1011.1 -
03/05:30am 6.0 1.6 5.0 93 0.5 W 17 28 9 15 1012.4 1010.9 -
03/05:00am 5.8 1.7 4.4 91 0.6 W 15 20 8 11 1012.3 1010.8 -
03/04:30am 4.8 0.6 3.8 93 0.4 W 15 19 8 10 1012.3 1010.8 -
03/04:00am 4.8 0.6 3.6 92 0.5 W 15 22 8 12 1012.3 1010.8 -
03/03:30am 4.9 0.2 3.4 90 0.7 WNW 17 24 9 13 1012.3 1010.8 -
03/03:00am 4.0 -0.1 2.5 90 0.6 WNW 13 17 7 9 1012.7 1011.3 -
03/02:30am 4.8 0.0 2.7 86 0.9 W 17 22 9 12 1013.0 1011.5 -
03/02:00am 5.3 1.0 3.2 86 0.9 W 15 20 8 11 1013.3 1011.8 -
03/01:30am 5.2 0.4 2.7 84 1.1 W 17 26 9 14 1013.5 1012.1 -
03/01:00am 5.6 0.3 2.9 83 1.2 W 20 28 11 15 1013.9 1012.4 -
03/12:30am 4.7 -1.1 2.4 85 1.0 W 22 26 12 14 1014.1 1012.6 0.0
03/12:00am 4.2 -1.1 1.9 85 1.0 WSW 19 24 10 13 1014.4 1013.0 0.0
 
Date/Time
EDT
Temp
°C
App
Temp
°C
Dew
Point
Rel
Hum
%
Delta-T
°C
Wind Press
QNH
hPa
Press
MSL
hPa
Rain
since 9 am
mm
Dir
 
Spd
km/h
Gust
km/h
Spd
kts
Gust
kts
02/11:30pm 5.1 -0.1 2.6 84 1.1 W 19 28 10 15 1014.3 1012.9 0.0
02/11:00pm 5.9 -0.5 3.4 84 1.1 W 26 32 14 17 1014.2 1012.8 0.0
02/10:30pm 6.8 1.3 4.1 83 1.2 W 22 30 12 16 1014.5 1013.1 0.0
02/10:00pm 7.0 1.6 4.5 84 1.2 WNW 22 33 12 18 1014.5 1013.1 0.0
02/09:30pm 7.0 2.2 4.7 85 1.1 WNW 19 26 10 14 1014.4 1013.0 0.0
02/09:00pm 7.0 2.6 4.5 84 1.2 NW 17 33 9 18 1013.7 1012.3 0.0
02/08:30pm 7.5 3.0 4.3 80 1.5 NW 17 28 9 15 1013.6 1012.2 0.0
02/08:00pm 8.0 3.6 4.8 80 1.5 NW 17 28 9 15 1013.7 1012.3 0.0
02/07:30pm 8.8 4.7 4.4 74 2.1 NW 15 22 8 12 1013.5 1012.1 0.0
02/07:00pm 9.8 5.4 2.9 62 3.2 NNW 15 26 8 14 1013.3 1011.8 0.0
02/06:30pm 9.6 5.7 3.4 65 2.9 NNW 13 20 7 11 1013.5 1012.1 0.0
02/06:00pm 9.9 4.7 3.4 64 3.0 NNW 20 30 11 16 1013.4 1012.0 0.0
02/05:30pm 10.6 6.2 2.7 58 3.6 NNW 15 26 8 14 1013.2 1011.7 0.0
02/05:00pm 11.1 6.3 2.7 56 3.9 N 17 26 9 14 1013.5 1012.1 0.0
02/04:30pm 11.7 6.1 1.1 48 4.7 NNW 20 30 11 16 1014.0 1012.5 0.0
02/04:00pm 13.0 8.0 1.4 45 5.3 NNW 17 28 9 15 1014.0 1012.5 0.0
02/03:30pm 12.8 7.7 3.2 52 4.5 NNW 19 32 10 17 1014.3 1012.9 0.0
02/03:00pm 13.0 8.3 5.2 59 3.9 N 19 28 10 15 1015.0 1013.5 0.0
02/02:30pm 11.9 6.8 6.2 68 2.9 N 22 39 12 21 1015.4 1014.0 0.0
02/02:00pm 12.0 7.3 5.2 63 3.3 N 19 39 10 21 1015.5 1014.1 0.0
02/01:30pm 11.5 5.8 4.7 63 3.3 N 24 41 13 22 1015.9 1014.5 0.0
02/01:00pm 11.7 6.6 5.8 67 2.9 N 22 37 12 20 1016.1 1014.7 0.0
02/12:30pm 10.9 4.9 5.4 69 2.7 N 26 39 14 21 1016.4 1015.0 0.0
02/12:19pm 10.5 4.0 4.9 68 2.7 N 28 46 15 25 1016.7 1015.4 0.0
02/12:00pm 11.3 5.7 5.6 68 2.8 N 24 41 13 22 1017.2 1015.8 0.0
02/11:30am 10.7 5.1 5.3 69 2.6 N 24 43 13 23 1017.5 1016.2 0.0
02/11:00am 9.9 3.9 5.3 73 2.2 N 26 43 14 23 1017.8 1016.5 0.0
02/10:30am 10.2 4.2 5.4 72 2.3 N 26 48 14 26 1017.6 1016.3 0.0
02/10:00am 9.4 2.9 4.6 72 2.3 N 28 46 15 25 1017.7 1016.4 0.0
02/09:37am 9.0 2.6 5.0 76 1.9 N 28 46 15 25 1017.6 1016.3 0.0
02/09:30am 9.2 3.3 5.6 78 1.7 N 26 41 14 22 1017.4 1016.0 0.0
02/09:00am 8.6 3.7 5.2 79 1.6 N 20 35 11 19 1017.2 1015.8 0.0
02/08:30am 8.4 3.8 5.5 82 1.4 NNE 19 33 10 18 1017.4 1016.0 0.0
02/08:00am 7.7 3.4 5.3 85 1.1 NNE 17 33 9 18 1017.0 1015.6 0.0
02/07:30am 6.9 2.6 5.4 90 0.7 NNE 17 28 9 15 1017.0 1015.6 0.0
02/07:00am 6.8 3.3 5.3 90 0.7 NNE 13 22 7 12 1016.7 1015.4 0.0
02/06:30am 7.0 4.9 5.8 92 0.6 E 6 13 3 7 1016.7 1015.4 0.0
02/06:00am 6.6 3.9 5.6 93 0.5 NE 9 15 5 8 1016.6 1015.2 0.0
02/05:30am 6.5 3.5 5.8 95 0.3 ENE 11 17 6 9 1016.7 1015.4 0.0
02/05:00am 6.2 3.0 5.2 93 0.5 NNE 11 17 6 9 1016.7 1015.4 0.0
02/04:30am 5.7 2.9 5.1 96 0.3 ENE 9 20 5 11 1016.7 1015.4 0.0
02/04:00am 3.9 0.8 3.8 99 0.0 NE 9 17 5 9 1016.4 1015.0 0.0
02/03:30am 0.0 -2.4 -0.1 99 0.0 NNW 2 7 1 4 1017.0 1015.6 0.0
02/03:00am -1.1 -4.1 -1.5 97 0.1 NNW 4 9 2 5 1016.5 1015.1 0.0
02/02:30am -1.3 -4.8 -1.4 99 0.0 WSW 7 11 4 6 1016.6 1015.2 0.0
02/02:00am -1.6 -4.6 -1.9 98 0.0 NNE 4 9 2 5 1016.6 1015.2 0.0
02/01:30am -1.8 -5.3 -2.5 95 0.2 W 6 11 3 6 1017.0 1015.6 0.0
02/01:00am -1.8 -4.9 -2.5 95 0.2 WNW 4 6 2 3 1016.8 1015.5 0.0
02/12:30am -1.3 -3.5 -1.9 96 0.2 CALM 0 6 0 3 1016.7 1015.4 0.0
02/12:00am 0.1 -3.4 -1.2 91 0.5 NW 7 9 4 5 1016.6 1015.2 0.0
 
Date/Time
EDT
Temp
°C
App
Temp
°C
Dew
Point
Rel
Hum
%
Delta-T
°C
Wind Press
QNH
hPa
Press
MSL
hPa
Rain
since 9 am
mm
Dir
 
Spd
km/h
Gust
km/h
Spd
kts
Gust
kts
01/11:30pm -0.3 -3.8 -1.0 95 0.2 NNW 7 9 4 5 1016.8 1015.5 0.0
01/11:00pm 0.6 -3.4 0.3 98 0.1 WNW 11 13 6 7 1017.2 1015.8 0.0
01/10:30pm -0.1 -3.5 -0.7 96 0.2 NW 7 9 4 5 1017.4 1016.0 0.0
01/10:00pm 0.7 -2.1 -0.6 91 0.5 NNW 4 9 2 5 1017.2 1015.8 0.0
01/09:30pm 1.4 -1.9 0.2 92 0.5 NW 7 11 4 6 1017.1 1015.7 0.0
01/09:00pm 1.5 -2.6 0.0 90 0.6 SSW 11 15 6 8 1016.4 1015.0 0.0
01/08:30pm 3.0 -0.6 0.9 86 0.9 SW 9 11 5 6 1016.1 1014.7 0.0
01/08:00pm 4.3 -0.3 1.3 81 1.3 SSW 15 19 8 10 1015.9 1014.5 0.0
01/07:30pm 6.4 1.5 2.3 75 1.8 SSW 17 22 9 12 1015.3 1013.9 0.0
01/07:00pm 9.4 4.4 3.4 66 2.8 WSW 19 26 10 14 1015.0 1013.5 0.0
01/06:30pm 9.1 3.4 3.1 66 2.7 SSW 22 28 12 15 1014.3 1012.9 0.0
01/06:00pm 9.4 3.2 2.3 61 3.2 SSW 24 32 13 17 1013.9 1012.4 0.0
01/05:30pm 9.7 2.8 4.5 70 2.5 SSW 30 39 16 21 1013.9 1012.4 0.0
01/05:00pm 9.7 3.7 5.1 73 2.2 SW 26 35 14 19 1013.2 1011.7 0.0
01/04:30pm 8.7 3.2 6.0 83 1.3 SSW 24 33 13 18 1013.1 1011.6 0.0
01/04:00pm 10.9 4.9 5.4 69 2.7 SW 26 35 14 19 1012.5 1011.1 0.0
01/03:30pm 10.3 6.0 7.7 84 1.3 SW 20 30 11 16 1012.3 1010.8 0.0
01/03:00pm 12.4 5.8 6.0 65 3.2 SW 30 44 16 24 1011.6 1010.1 0.0
01/02:30pm 11.1 4.7 5.2 67 2.9 SW 28 35 15 19 1011.6 1010.1 0.0
01/02:00pm 12.4 4.8 5.8 64 3.3 SW 35 48 19 26 1011.0 1009.5 0.0
01/01:32pm 11.3 4.9 5.2 66 3.0 SSW 28 46 15 25 1010.6 1009.1 0.0
01/01:30pm 11.2 4.7 4.9 65 3.0 SW 28 35 15 19 1010.6 1009.1 0.0
01/01:00pm 10.0 3.9 5.0 71 2.4 SW 26 35 14 19 1010.5 1009.0 0.0
01/12:30pm 9.5 2.9 4.3 70 2.5 SW 28 39 15 21 1010.3 1008.8 0.0
01/12:04pm 9.9 3.1 3.2 63 3.1 SW 28 46 15 25 1009.8 1008.2 0.0
01/12:00pm 10.2 3.2 3.9 65 3.0 SW 30 46 16 25 1009.8 1008.2 0.0
01/11:45am 9.8 3.1 3.5 65 2.9 SW 28 46 15 25 1009.6 1008.1 0.0
01/11:30am 8.9 2.1 5.1 77 1.8 SW 30 44 16 24 1009.4 1007.9 0.0
01/11:00am 8.9 1.5 5.1 77 1.8 SW 33 44 18 24 1009.2 1007.7 0.0
01/10:30am 7.8 0.9 4.6 80 1.5 WSW 30 39 16 21 1008.4 1006.0 0.0
01/10:00am 7.8 0.4 4.2 78 1.7 SW 32 46 17 25 1007.9 1005.5 0.0
01/09:30am 7.5 -0.5 3.9 78 1.7 SW 35 50 19 27 1007.1 1004.7 0.0
01/09:00am 7.3 -0.6 4.1 80 1.5 SW 35 48 19 26 1006.7 1004.2 0.2
01/08:30am 7.4 0.4 5.9 90 0.7 SW 32 43 17 23 1006.1 1003.7 0.2
01/08:00am 6.7 -0.6 4.4 85 1.1 SW 32 44 17 24 1005.5 1003.1 0.2
01/07:30am 6.1 -1.2 4.3 88 0.8 SW 32 46 17 25 1005.0 1002.5 0.2
01/07:00am 6.3 -0.2 4.6 89 0.8 WSW 28 39 15 21 1004.0 1001.5 0.2
01/06:46am 6.2 -0.3 4.8 91 0.6 SW 28 48 15 26 1003.8 1001.3 0.2
01/06:30am 5.7 -0.8 4.7 93 0.5 SW 28 41 15 22 1003.6 1001.1 0.2
01/06:00am 6.2 0.9 4.8 91 0.7 WSW 22 33 12 18 1003.3 1000.8 0.2
01/05:30am 5.8 0.0 4.6 92 0.6 WSW 24 35 13 19 1002.9 1000.4 0.2
01/05:00am 5.9 0.2 4.7 92 0.6 WSW 24 32 13 17 1002.8 1000.3 0.2
01/04:30am 6.0 -0.9 4.5 90 0.7 WSW 30 39 16 21 1002.9 1000.4 0.2
01/04:00am 5.3 -0.1 4.4 94 0.4 WSW 22 28 12 15 1002.8 1000.3 0.2
01/03:30am 5.8 0.5 4.8 93 0.5 WSW 22 28 12 15 1003.1 1000.6 0.2
01/03:00am 7.0 0.3 5.5 90 0.7 WSW 30 39 16 21 1003.2 1000.7 0.2
01/02:30am 6.7 2.0 5.3 91 0.7 WNW 19 24 10 13 1003.2 1000.7 0.2
01/02:00am 7.0 2.3 5.3 89 0.8 WNW 19 22 10 12 1003.2 1000.7 0.2
01/01:30am 7.5 1.6 5.8 89 0.8 W 26 33 14 18 1003.0 1000.5 0.2
01/01:00am 7.8 3.0 5.8 87 1.0 W 20 35 11 19 1002.9 1000.4 0.2
01/12:30am 8.4 4.4 6.5 88 0.9 W 17 20 9 11 1003.0 1000.5 0.2
01/12:00am 9.3 4.9 7.4 88 1.0 WNW 20 26 11 14 1003.1 1000.6 0.2
 
Date/Time
EDT
Temp
°C
App
Temp
°C
Dew
Point
Rel
Hum
%
Delta-T
°C
Wind Press
QNH
hPa
Press
MSL
hPa
Rain
since 9 am
mm
Dir
 
Spd
km/h
Gust
km/h
Spd
kts
Gust
kts
28/11:30pm 10.4 5.8 8.3 87 1.1 WNW 22 32 12 17 1003.0 1000.5 0.2
28/11:00pm 11.3 6.6 9.2 87 1.1 WNW 24 32 13 17 1002.9 1000.4 0.2
28/10:30pm 11.7 7.5 9.8 88 1.0 WNW 22 32 12 17 1002.8 1000.3 0.2
28/10:00pm 12.1 8.0 10.0 87 1.1 NW 22 37 12 20 1002.9 1000.4 0.2
28/09:30pm 12.1 8.4 10.3 89 1.0 WNW 20 30 11 16 1002.7 1000.2 0.2
28/09:00pm 12.4 8.8 10.5 88 1.0 NW 20 39 11 21 1002.1 999.6 0.2
28/08:30pm 12.6 9.0 10.7 88 1.0 WNW 20 32 11 17 1001.8 999.2 0.2
28/08:00pm 12.9 9.6 11.5 91 0.8 NW 20 32 11 17 1002.2 999.7 0.0

Other Formats:

Comma delimited format used in spreadsheet applications
http://www.bom.gov.au/fwo/IDT60801/IDT60801.95959.axf

JavaScript Object Notation format (JSON) in row-major order
http://www.bom.gov.au/fwo/IDT60801/IDT60801.95959.json